Time;durP1;ratioP1;P1;durP2;ratioP2;P2;SDS_P1;SDS_P2;PMS_P1;PMS_P2;Temp;Humidity;BMP_temperature;BMP_pressure;BME280_temperature;BME280_humidity;BME280_pressure;Samples;Min_cycle;Max_cycle;Signal;HPM_P1;HPM_P2
2022/09/14 00:01:18;;;;;;;17.30;4.97;;;12.20;99.90;;;;;;4942457;29;20136;-74
2022/09/14 00:03:44;;;;;;;15.98;4.65;;;12.10;99.90;;;;;;4939791;29;20083;-76
2022/09/14 00:06:13;;;;;;;13.60;4.30;;;12.10;99.90;;;;;;4939737;29;20073;-75
2022/09/14 00:08:38;;;;;;;28.20;5.15;;;12.10;99.90;;;;;;4956341;29;20082;-73
2022/09/14 00:11:10;;;;;;;16.15;4.75;;;12.10;99.90;;;;;;4955522;28;20126;-74
2022/09/14 00:13:37;;;;;;;15.75;5.00;;;12.10;99.90;;;;;;4939136;29;20047;-75
2022/09/14 00:16:13;;;;;;;17.00;4.32;;;12.10;99.90;;;;;;4956079;29;20047;-74
2022/09/14 00:18:38;;;;;;;15.50;4.88;;;12.10;99.90;;;;;;4938169;29;20118;-74
2022/09/14 00:21:07;;;;;;;15.27;5.10;;;12.10;99.90;;;;;;4956331;29;20059;-75
2022/09/14 00:23:37;;;;;;;15.85;4.93;;;12.20;99.90;;;;;;4955766;29;20047;-73
2022/09/14 00:26:09;;;;;;;13.00;5.07;;;12.10;99.90;;;;;;4938608;29;20047;-75
2022/09/14 00:28:40;;;;;;;15.38;4.78;;;12.10;99.90;;;;;;4955410;29;20578;-73
2022/09/14 00:31:07;;;;;;;16.15;5.03;;;12.20;99.90;;;;;;4955404;29;20039;-73
2022/09/14 00:33:33;;;;;;;19.08;4.93;;;12.20;99.90;;;;;;4923297;29;20319;-74
2022/09/14 00:36:11;;;;;;;15.43;5.20;;;12.20;99.90;;;;;;4954879;29;20449;-74
2022/09/14 00:38:38;;;;;;;18.88;5.10;;;12.20;99.90;;;;;;4956049;29;20047;-73
2022/09/14 00:41:06;;;;;;;16.33;4.95;;;12.20;99.90;;;;;;4955212;29;20051;-75
2022/09/14 00:43:49;;;;;;;15.63;5.57;;;12.20;99.90;;;;;;4938049;29;20496;-74
2022/09/14 00:46:15;;;;;;;17.25;5.25;;;12.20;99.90;;;;;;4955339;29;20050;-74
2022/09/14 00:48:41;;;;;;;18.58;4.97;;;12.20;99.90;;;;;;4922364;29;20059;-74
2022/09/14 00:51:06;;;;;;;15.98;5.22;;;12.20;99.90;;;;;;4958134;29;20126;-74
2022/09/14 00:53:32;;;;;;;18.20;6.00;;;12.20;99.90;;;;;;4955922;29;20147;-74
2022/09/14 00:55:58;;;;;;;16.63;5.55;;;12.20;99.90;;;;;;4954971;29;20047;-74
2022/09/14 00:58:23;;;;;;;17.85;5.40;;;12.20;99.90;;;;;;4938066;29;20090;-74
2022/09/14 01:00:49;;;;;;;17.20;5.20;;;12.20;99.90;;;;;;4937867;29;20049;-76
2022/09/14 01:03:15;;;;;;;15.32;5.80;;;12.20;99.90;;;;;;4955160;29;20476;-75
2022/09/14 01:05:46;;;;;;;17.27;5.45;;;12.20;99.90;;;;;;4937340;29;20043;-74
2022/09/14 01:08:29;;;;;;;14.40;5.30;;;12.20;99.90;;;;;;4955355;29;20035;-74
2022/09/14 01:11:29;;;;;;;11.02;4.82;;;12.10;99.90;;;;;;4937495;29;20504;-73
2022/09/14 01:14:02;;;;;;;16.65;5.47;;;12.10;99.90;;;;;;4954406;29;20043;-73
2022/09/14 01:16:46;;;;;;;14.23;5.10;;;12.00;99.90;;;;;;4937682;29;20061;-73
2022/09/14 01:19:30;;;;;;;14.20;5.03;;;12.00;99.90;;;;;;4939208;29;20071;-74
2022/09/14 01:22:06;;;;;;;12.65;4.63;;;11.90;99.90;;;;;;4956875;28;20110;-75
2022/09/14 01:25:02;;;;;;;11.20;4.85;;;11.90;99.90;;;;;;4959332;29;20462;-76
2022/09/14 01:27:33;;;;;;;11.50;4.70;;;11.90;99.90;;;;;;4959018;29;20043;-75
2022/09/14 01:30:11;;;;;;;18.67;4.93;;;11.90;99.90;;;;;;4958977;29;20149;-75
2022/09/14 01:32:52;;;;;;;18.63;5.38;;;11.90;99.90;;;;;;4942432;29;20187;-75
2022/09/14 01:35:24;;;;;;;12.63;5.32;;;11.90;99.90;;;;;;4958411;29;20107;-73
2022/09/14 01:38:06;;;;;;;15.00;4.65;;;11.80;99.90;;;;;;4925398;29;20479;-73
2022/09/14 01:40:43;;;;;;;12.02;4.53;;;11.80;99.90;;;;;;4958509;29;20079;-74
2022/09/14 01:43:24;;;;;;;16.13;4.50;;;11.70;99.90;;;;;;4958267;29;20047;-74
2022/09/14 01:45:54;;;;;;;13.90;5.15;;;11.70;99.90;;;;;;4925909;29;20047;-75
2022/09/14 01:48:29;;;;;;;17.55;5.00;;;11.70;99.90;;;;;;4926161;29;20149;-74
2022/09/14 01:50:58;;;;;;;14.25;4.95;;;11.70;99.90;;;;;;4959055;29;20102;-76
2022/09/14 01:53:33;;;;;;;19.77;5.57;;;11.60;99.90;;;;;;4941270;29;20091;-74
2022/09/14 01:56:14;;;;;;;18.35;5.07;;;11.60;99.90;;;;;;4957761;29;20500;-75
2022/09/14 01:59:03;;;;;;;20.33;5.57;;;11.60;99.90;;;;;;4958030;29;20043;-74
2022/09/14 02:01:39;;;;;;;17.25;6.00;;;11.50;99.90;;;;;;4957990;29;20126;-74
2022/09/14 02:04:10;;;;;;;17.08;5.47;;;11.50;99.90;;;;;;4958718;29;20055;-74
2022/09/14 02:06:38;;;;;;;17.13;5.50;;;11.50;99.90;;;;;;4957880;29;20051;-76
2022/09/14 02:09:08;;;;;;;16.20;5.80;;;11.50;99.90;;;;;;4957655;29;20110;-74
2022/09/14 02:11:34;;;;;;;16.13;5.50;;;11.50;99.90;;;;;;4941313;29;20098;-75
2022/09/14 02:14:00;;;;;;;16.65;5.82;;;11.50;99.90;;;;;;4957513;29;20047;-75
2022/09/14 02:16:26;;;;;;;19.42;5.75;;;11.40;99.90;;;;;;4940942;29;20061;-75
2022/09/14 02:18:52;;;;;;;20.92;5.70;;;11.50;99.90;;;;;;4957734;29;20047;-74
2022/09/14 02:21:24;;;;;;;15.43;5.13;;;11.40;99.90;;;;;;4940875;29;20051;-75
2022/09/14 02:23:50;;;;;;;14.55;5.68;;;11.50;99.90;;;;;;4940534;29;20051;-74
2022/09/14 02:26:17;;;;;;;14.75;5.15;;;11.50;99.90;;;;;;4957697;29;20047;-75
2022/09/14 02:28:43;;;;;;;17.38;5.20;;;11.50;99.90;;;;;;4957414;29;20561;-74
2022/09/14 02:31:19;;;;;;;17.40;5.53;;;11.50;99.90;;;;;;4924803;29;20142;-74
2022/09/14 02:34:07;;;;;;;16.73;5.43;;;11.60;99.90;;;;;;4958417;28;20043;-74
2022/09/14 02:36:45;;;;;;;16.00;5.63;;;11.60;99.90;;;;;;4940443;29;20299;-73
2022/09/14 02:39:17;;;;;;;12.98;5.35;;;11.60;99.90;;;;;;4940924;29;20051;-75
2022/09/14 02:41:53;;;;;;;16.95;5.45;;;11.70;99.90;;;;;;4957971;29;20058;-75
2022/09/14 02:44:34;;;;;;;13.85;5.57;;;11.70;99.90;;;;;;4940439;29;20125;-75
2022/09/14 02:47:05;;;;;;;16.52;6.13;;;11.70;99.90;;;;;;4959662;29;20054;-73
2022/09/14 02:50:03;;;;;;;16.90;5.28;;;11.70;99.90;;;;;;4940029;29;20079;-74
2022/09/14 02:52:58;;;;;;;19.10;5.90;;;11.70;99.90;;;;;;4940223;29;20110;-73
2022/09/14 02:55:28;;;;;;;22.42;6.10;;;11.80;99.90;;;;;;4945649;29;20542;-74
2022/09/14 02:58:13;;;;;;;18.27;5.63;;;11.80;99.90;;;;;;4947962;29;20461;-75
2022/09/14 03:00:45;;;;;;;15.93;5.35;;;11.80;99.90;;;;;;4942029;29;20117;-74
2022/09/14 03:03:14;;;;;;;18.35;5.05;;;11.90;99.90;;;;;;4958016;29;20110;-74
2022/09/14 03:05:43;;;;;;;15.00;4.85;;;11.90;99.90;;;;;;4958335;29;20369;-74
2022/09/14 03:08:10;;;;;;;15.30;5.00;;;11.80;99.90;;;;;;4967140;29;20395;-74
2022/09/14 03:10:37;;;;;;;18.48;5.30;;;11.90;99.90;;;;;;4946207;29;20066;-73
2022/09/14 03:13:03;;;;;;;16.60;5.15;;;11.90;99.90;;;;;;4960117;29;20055;-75
2022/09/14 03:15:30;;;;;;;17.13;6.05;;;11.90;99.90;;;;;;4965103;29;20055;-74
2022/09/14 03:17:56;;;;;;;12.32;4.90;;;11.90;99.90;;;;;;4916614;29;20047;-74
2022/09/14 03:20:27;;;;;;;20.05;5.38;;;11.90;99.90;;;;;;4928061;29;20066;-75
2022/09/14 03:22:53;;;;;;;15.95;5.65;;;11.90;99.90;;;;;;4928649;29;20129;-73
2022/09/14 03:25:19;;;;;;;13.43;5.53;;;11.90;99.90;;;;;;4943399;29;20159;-73
2022/09/14 03:27:49;;;;;;;17.23;5.35;;;11.90;99.90;;;;;;4942538;29;20054;-73
2022/09/14 03:30:16;;;;;;;12.02;5.05;;;12.00;99.90;;;;;;4957561;29;20053;-74
2022/09/14 03:32:41;;;;;;;14.27;5.22;;;12.00;99.90;;;;;;4940688;29;20051;-74
2022/09/14 03:35:11;;;;;;;19.92;5.88;;;12.00;99.90;;;;;;4956721;29;20047;-76
2022/09/14 03:37:38;;;;;;;19.95;5.80;;;12.00;99.90;;;;;;4956144;29;20047;-74
2022/09/14 03:40:04;;;;;;;15.80;5.75;;;12.00;99.90;;;;;;4956492;29;20055;-74
2022/09/14 03:42:30;;;;;;;26.92;6.03;;;12.00;99.90;;;;;;4908047;29;20051;-75
2022/09/14 03:44:57;;;;;;;19.73;7.07;;;12.00;99.90;;;;;;4938446;29;20051;-74
2022/09/14 03:47:22;;;;;;;17.38;7.13;;;12.00;99.90;;;;;;4955958;29;20050;-74
2022/09/14 03:49:48;;;;;;;17.98;6.38;;;12.00;99.90;;;;;;4938847;29;20392;-74
2022/09/14 03:52:14;;;;;;;20.70;6.93;;;12.00;99.90;;;;;;4956145;29;20093;-74
2022/09/14 03:54:39;;;;;;;25.58;7.53;;;12.00;99.90;;;;;;4956057;29;20130;-75
2022/09/14 03:57:06;;;;;;;20.75;6.80;;;12.00;99.90;;;;;;4938533;29;20062;-72
2022/09/14 03:59:33;;;;;;;25.25;7.22;;;11.90;99.90;;;;;;4939297;29;20043;-74
2022/09/14 04:01:59;;;;;;;;;;;11.90;99.90;;;;;;4956902;29;20057;-74
2022/09/14 04:04:25;;;;;;;16.40;6.13;;;11.80;99.90;;;;;;4955937;29;19930;-74
2022/09/14 04:06:51;;;;;;;18.08;6.82;;;11.80;99.90;;;;;;4956069;29;20342;-74
2022/09/14 04:09:18;;;;;;;20.85;6.72;;;11.80;99.90;;;;;;4938963;29;20062;-74
2022/09/14 04:11:44;;;;;;;23.88;6.78;;;11.90;99.90;;;;;;4956019;29;20055;-74
2022/09/14 04:14:11;;;;;;;25.88;6.80;;;11.90;99.90;;;;;;4938413;29;20149;-74
2022/09/14 04:16:38;;;;;;;17.05;5.75;;;12.00;99.90;;;;;;4955814;29;20059;-74
2022/09/14 04:19:04;;;;;;;17.77;6.40;;;12.00;99.90;;;;;;4922888;29;20142;-75
2022/09/14 04:21:30;;;;;;;21.95;6.25;;;12.10;99.90;;;;;;4939623;29;20051;-74
2022/09/14 04:23:56;;;;;;;21.10;5.43;;;12.20;99.90;;;;;;4938390;29;20491;-74
2022/09/14 04:26:24;;;;;;;14.68;5.95;;;12.20;99.90;;;;;;4955157;29;20488;-74
2022/09/14 04:28:50;;;;;;;14.73;5.60;;;12.30;99.90;;;;;;4955223;29;20051;-75
2022/09/14 04:31:15;;;;;;;15.98;5.45;;;12.40;99.90;;;;;;4955446;29;20592;-75
2022/09/14 04:33:42;;;;;;;19.17;6.38;;;12.40;99.90;;;;;;4956225;29;20047;-74
2022/09/14 04:36:13;;;;;;;13.43;5.38;;;12.40;99.90;;;;;;4939364;29;20047;-74
2022/09/14 04:38:40;;;;;;;18.80;5.70;;;12.50;99.90;;;;;;4956389;29;20086;-75
2022/09/14 04:41:12;;;;;;;18.02;5.82;;;12.60;99.90;;;;;;4940401;29;20063;-74
2022/09/14 04:43:38;;;;;;;20.45;5.82;;;12.60;99.90;;;;;;4940206;29;20365;-75
2022/09/14 04:46:26;;;;;;;28.30;5.75;;;12.60;99.90;;;;;;4957162;29;20047;-74
2022/09/14 04:48:58;;;;;;;18.63;6.05;;;12.70;99.90;;;;;;4940203;29;20126;-74
2022/09/14 04:51:27;;;;;;;15.35;5.45;;;12.70;99.90;;;;;;4960209;29;20073;-75
2022/09/14 04:53:55;;;;;;;18.05;5.63;;;12.70;99.90;;;;;;4959689;29;20086;-74
2022/09/14 04:56:21;;;;;;;18.90;5.35;;;12.70;99.90;;;;;;4962806;28;20130;-74
2022/09/14 04:58:50;;;;;;;21.20;5.53;;;12.70;99.90;;;;;;4943852;29;20043;-74
2022/09/14 05:01:19;;;;;;;18.65;5.80;;;12.80;99.90;;;;;;4960935;29;20122;-76
2022/09/14 05:03:45;;;;;;;16.33;6.45;;;12.80;99.90;;;;;;4946671;29;20055;-74
2022/09/14 05:06:12;;;;;;;19.13;5.32;;;12.80;99.90;;;;;;4960431;29;20066;-75
2022/09/14 05:08:38;;;;;;;14.77;5.35;;;12.80;99.90;;;;;;4926286;29;20043;-75
2022/09/14 05:11:06;;;;;;;17.45;5.35;;;12.80;99.90;;;;;;4959265;29;20081;-74
2022/09/14 05:13:32;;;;;;;16.67;6.05;;;12.90;99.90;;;;;;4942952;29;20047;-75
2022/09/14 05:16:26;;;;;;;15.82;5.78;;;12.90;99.90;;;;;;4960041;29;20063;-74
2022/09/14 05:18:55;;;;;;;18.27;5.93;;;12.90;99.90;;;;;;4957696;28;20047;-75
2022/09/14 05:21:22;;;;;;;17.65;5.32;;;13.00;99.90;;;;;;4927771;29;20151;-75
2022/09/14 05:23:52;;;;;;;;;;;12.90;99.90;;;;;;4957981;29;20051;-73
2022/09/14 05:26:17;;;;;;;16.48;5.40;;;13.00;99.90;;;;;;4957319;29;19964;-75
2022/09/14 05:28:50;;;;;;;17.20;4.53;;;13.00;99.90;;;;;;4958775;29;20400;-75
2022/09/14 05:31:16;;;;;;;20.75;5.88;;;13.00;99.90;;;;;;4941613;29;20118;-76
2022/09/14 05:33:41;;;;;;;20.75;5.32;;;13.00;99.90;;;;;;4941333;29;20094;-75
2022/09/14 05:36:08;;;;;;;19.63;5.40;;;13.00;99.90;;;;;;4939047;29;20238;-74
2022/09/14 05:38:35;;;;;;;;;;;13.00;99.90;;;;;;4956300;29;20139;-75
2022/09/14 05:41:01;;;;;;;17.17;5.15;;;13.10;99.90;;;;;;4956339;29;19978;-74
2022/09/14 05:43:28;;;;;;;17.83;4.65;;;13.00;99.90;;;;;;4924375;29;20161;-75
2022/09/14 05:45:53;;;;;;;14.75;5.28;;;13.00;99.90;;;;;;4940568;29;20452;-74
2022/09/14 05:48:19;;;;;;;14.25;4.95;;;13.00;99.90;;;;;;4955823;29;20050;-74
2022/09/14 05:50:46;;;;;;;14.80;4.73;;;13.10;99.90;;;;;;4938962;29;20050;-74
2022/09/14 05:53:11;;;;;;;14.20;5.03;;;13.10;99.90;;;;;;4938928;29;20161;-74
2022/09/14 05:55:37;;;;;;;16.88;6.10;;;13.10;99.90;;;;;;4943835;29;20063;-73
2022/09/14 05:58:04;;;;;;;17.33;5.40;;;13.10;99.90;;;;;;4957393;29;20058;-75
2022/09/14 06:00:30;;;;;;;20.27;5.95;;;13.10;99.90;;;;;;4955128;29;20051;-75
2022/09/14 06:02:56;;;;;;;18.60;5.78;;;13.20;99.90;;;;;;4954749;29;20098;-75
2022/09/14 06:05:24;;;;;;;15.75;5.30;;;13.20;99.90;;;;;;4938863;29;20102;-74
2022/09/14 06:07:51;;;;;;;21.63;5.78;;;13.20;99.90;;;;;;4955923;28;20122;-75
2022/09/14 06:10:18;;;;;;;17.73;6.30;;;13.20;99.90;;;;;;4957425;29;20050;-74
2022/09/14 06:12:44;;;;;;;14.10;5.65;;;13.20;99.90;;;;;;4940683;29;20062;-74
2022/09/14 06:15:10;;;;;;;17.98;6.78;;;13.30;99.90;;;;;;4957862;29;20105;-73
2022/09/14 06:17:36;;;;;;;15.68;5.55;;;13.30;99.90;;;;;;4940662;29;20376;-74
2022/09/14 06:20:03;;;;;;;21.60;6.07;;;13.30;99.90;;;;;;4940479;29;20058;-74
2022/09/14 06:22:30;;;;;;;14.43;6.00;;;13.30;99.90;;;;;;4941022;29;20051;-74
2022/09/14 06:24:55;;;;;;;;;;;13.40;99.90;;;;;;4941313;29;20104;-74
2022/09/14 06:27:21;;;;;;;18.23;5.60;;;13.40;99.90;;;;;;4941125;29;19929;-75
2022/09/14 06:29:50;;;;;;;19.15;5.85;;;13.50;99.90;;;;;;4957594;29;20122;-74
2022/09/14 06:32:17;;;;;;;18.83;6.00;;;13.50;99.90;;;;;;4958087;29;20058;-75
2022/09/14 06:34:43;;;;;;;13.50;5.53;;;13.50;99.90;;;;;;4940880;29;20130;-75
2022/09/14 06:37:09;;;;;;;14.53;5.27;;;13.60;99.90;;;;;;4963952;29;20051;-74
2022/09/14 06:39:35;;;;;;;14.48;5.72;;;13.70;99.90;;;;;;4944493;29;20074;-75
2022/09/14 06:42:01;;;;;;;18.90;6.47;;;13.70;99.90;;;;;;4941735;29;20043;-74
2022/09/14 06:44:27;;;;;;;14.73;6.13;;;13.70;99.90;;;;;;4940818;28;20047;-74
2022/09/14 06:46:52;;;;;;;19.27;6.85;;;13.80;99.90;;;;;;4957163;29;20051;-74
2022/09/14 06:49:21;;;;;;;18.73;6.10;;;13.80;99.90;;;;;;4957571;29;20043;-76
2022/09/14 06:51:49;;;;;;;16.52;5.75;;;13.90;99.90;;;;;;4924571;29;20047;-73
2022/09/14 06:54:16;;;;;;;25.20;6.00;;;14.00;99.90;;;;;;4957508;29;20054;-74
2022/09/14 06:56:44;;;;;;;18.65;5.88;;;14.00;99.90;;;;;;4939908;29;20055;-74
2022/09/14 06:59:14;;;;;;;16.73;6.00;;;14.10;99.90;;;;;;4956620;29;20054;-74
2022/09/14 07:01:41;;;;;;;20.80;6.32;;;14.10;99.90;;;;;;4957261;29;20070;-74
2022/09/14 07:04:07;;;;;;;20.42;6.30;;;14.10;99.90;;;;;;4940242;29;20131;-72
2022/09/14 07:06:48;;;;;;;16.35;6.15;;;14.10;99.90;;;;;;4939547;29;20507;-78
2022/09/14 07:09:16;;;;;;;18.05;5.97;;;14.20;99.90;;;;;;4940176;29;20070;-75
2022/09/14 07:11:42;;;;;;;13.73;6.18;;;14.30;99.90;;;;;;4956697;29;20039;-74
2022/09/14 07:14:09;;;;;;;16.50;6.18;;;14.40;99.90;;;;;;4956415;29;20070;-75
2022/09/14 07:16:36;;;;;;;17.50;6.28;;;14.50;99.90;;;;;;4923462;29;20055;-77
2022/09/14 07:19:05;;;;;;;18.15;6.60;;;14.60;99.90;;;;;;4955426;28;20074;-73
2022/09/14 07:21:33;;;;;;;19.08;7.22;;;14.70;99.90;;;;;;4939328;29;20055;-74
2022/09/14 07:23:59;;;;;;;16.90;6.82;;;14.70;99.90;;;;;;4957362;29;20062;-74
2022/09/14 07:26:27;;;;;;;14.40;6.55;;;14.80;99.90;;;;;;4939554;29;20127;-74
2022/09/14 07:28:57;;;;;;;16.50;6.75;;;14.90;99.90;;;;;;4940291;29;20119;-74
2022/09/14 07:31:25;;;;;;;15.13;7.57;;;15.00;99.90;;;;;;4944569;29;20130;-74
2022/09/14 07:33:56;;;;;;;21.08;7.45;;;15.10;99.90;;;;;;4961611;29;20047;-73
2022/09/14 07:36:24;;;;;;;27.33;7.90;;;15.20;99.90;;;;;;4943814;29;20501;-75
2022/09/14 07:38:50;;;;;;;28.70;7.85;;;15.10;99.90;;;;;;4957796;29;20440;-75
2022/09/14 07:41:15;;;;;;;21.40;7.13;;;15.10;99.90;;;;;;4939183;29;20444;-75
2022/09/14 07:43:41;;;;;;;21.98;7.05;;;15.10;99.90;;;;;;4956678;29;20078;-75
2022/09/14 07:46:07;;;;;;;20.50;7.03;;;15.20;99.90;;;;;;4956027;29;20043;-75
2022/09/14 07:48:34;;;;;;;22.17;7.57;;;15.40;99.90;;;;;;4938926;29;20047;-75
2022/09/14 07:51:11;;;;;;;22.73;7.65;;;15.50;99.90;;;;;;4955855;29;20050;-74
2022/09/14 07:53:41;;;;;;;20.35;6.93;;;15.70;99.90;;;;;;4939150;29;20051;-77
2022/09/14 07:56:08;;;;;;;23.60;7.57;;;15.90;99.90;;;;;;4956426;29;20492;-75
2022/09/14 07:58:34;;;;;;;17.45;7.35;;;16.10;99.90;;;;;;4955682;29;20043;-74
2022/09/14 08:01:06;;;;;;;23.67;7.40;;;16.10;99.90;;;;;;4956935;29;20114;-74
2022/09/14 08:03:32;;;;;;;19.10;6.00;;;16.30;99.90;;;;;;4940146;29;20340;-75
2022/09/14 08:06:00;;;;;;;15.95;5.90;;;16.50;99.90;;;;;;4955648;29;20122;-74
2022/09/14 08:08:30;;;;;;;17.35;5.80;;;16.60;99.90;;;;;;4938655;29;20130;-74
2022/09/14 08:11:04;;;;;;;16.67;5.95;;;16.80;99.90;;;;;;4938656;29;20138;-75
2022/09/14 08:13:31;;;;;;;16.92;5.00;;;16.80;99.90;;;;;;4938799;29;20392;-74
2022/09/14 08:15:59;;;;;;;18.38;4.53;;;16.80;99.90;;;;;;4938130;29;20063;-74
2022/09/14 08:18:26;;;;;;;18.77;5.10;;;17.00;99.90;;;;;;4955171;29;20051;-74
2022/09/14 08:20:52;;;;;;;13.65;4.55;;;17.00;99.90;;;;;;4955383;29;20054;-73
2022/09/14 08:23:17;;;;;;;16.83;5.13;;;17.00;99.90;;;;;;4923105;29;20047;-75
2022/09/14 08:25:43;;;;;;;13.38;5.38;;;17.00;99.90;;;;;;4922284;29;20055;-75
2022/09/14 08:28:09;;;;;;;13.73;5.68;;;17.10;99.90;;;;;;4955082;29;20039;-75
2022/09/14 08:30:34;;;;;;;11.30;6.05;;;17.20;99.90;;;;;;4955032;28;20047;-74
2022/09/14 08:33:00;;;;;;;15.30;6.00;;;17.20;99.90;;;;;;4938517;29;20047;-75
2022/09/14 08:35:26;;;;;;;21.83;5.97;;;17.20;99.90;;;;;;4955304;29;20551;-74
2022/09/14 08:37:52;;;;;;;17.25;6.15;;;17.20;99.90;;;;;;4954918;29;20123;-75
2022/09/14 08:40:18;;;;;;;18.70;5.95;;;17.30;99.90;;;;;;4922035;29;20070;-74
2022/09/14 08:42:45;;;;;;;15.87;4.60;;;17.30;99.90;;;;;;4954798;29;20047;-75
2022/09/14 08:45:15;;;;;;;15.88;5.00;;;17.30;99.90;;;;;;4938563;29;20047;-75
2022/09/14 08:47:42;;;;;;;13.30;5.78;;;17.30;99.90;;;;;;4937866;29;20173;-77
2022/09/14 08:50:17;;;;;;;;;;;17.60;99.90;;;;;;4938692;29;20051;-75
2022/09/14 08:52:53;;;;;;;13.48;5.40;;;17.70;99.90;;;;;;4958814;29;19977;-78
2022/09/14 08:55:34;;;;;;;13.70;4.63;;;17.80;99.90;;;;;;4942401;29;20051;-75
2022/09/14 08:58:20;;;;;;;15.00;5.32;;;18.00;99.90;;;;;;4955187;29;20150;-74
2022/09/14 09:00:52;;;;;;;14.65;4.68;;;17.80;99.90;;;;;;4955667;29;20083;-76
2022/09/14 09:03:43;;;;;;;11.50;2.00;;;17.90;99.90;;;;;;4954839;29;20043;-75
2022/09/14 09:06:20;;;;;;;9.68;1.92;;;18.20;99.90;;;;;;4937643;29;20130;-74
2022/09/14 09:09:08;;;;;;;12.32;1.70;;;18.20;99.90;;;;;;4955910;29;20078;-78
2022/09/14 09:11:41;;;;;;;7.25;1.13;;;18.40;99.90;;;;;;4938967;29;20063;-75
2022/09/14 09:14:35;;;;;;;10.38;0.70;;;18.20;99.90;;;;;;4956814;29;20058;-75
2022/09/14 09:17:13;;;;;;;12.52;1.00;;;18.20;99.90;;;;;;4927810;29;20051;-73
2022/09/14 09:20:11;;;;;;;10.13;1.33;;;18.20;99.90;;;;;;4939849;29;20118;-73
2022/09/14 09:22:44;;;;;;;9.63;0.93;;;18.10;99.90;;;;;;4939347;29;20105;-73
2022/09/14 09:25:22;;;;;;;7.95;0.80;;;18.30;99.90;;;;;;4955517;29;20139;-75
2022/09/14 09:27:54;;;;;;;12.05;0.95;;;18.40;99.90;;;;;;4958701;29;20384;-79
2022/09/14 09:30:19;;;;;;;10.13;0.73;;;18.50;99.90;;;;;;4954720;29;20054;-74
2022/09/14 09:32:45;;;;;;;6.63;0.50;;;18.60;99.90;;;;;;4954990;29;20052;-74
2022/09/14 09:35:18;;;;;;;6.20;0.70;;;18.40;99.90;;;;;;4922631;29;20051;-74
2022/09/14 09:37:44;;;;;;;8.32;1.02;;;18.50;99.90;;;;;;4940998;29;20197;-76
2022/09/14 09:40:16;;;;;;;7.53;0.60;;;18.50;99.90;;;;;;4922722;29;20110;-73
2022/09/14 09:43:08;;;;;;;6.65;0.55;;;18.50;99.90;;;;;;4922112;29;20051;-73
2022/09/14 09:45:59;;;;;;;8.30;0.52;;;18.40;99.90;;;;;;4958778;29;20058;-73
2022/09/14 09:48:46;;;;;;;6.13;0.80;;;18.30;99.90;;;;;;4956330;29;20043;-75
2022/09/14 09:51:25;;;;;;;9.63;0.70;;;18.20;99.90;;;;;;4967715;29;20043;-74
2022/09/14 09:54:12;;;;;;;9.05;0.60;;;18.30;99.90;;;;;;4968563;29;20043;-79
2022/09/14 09:57:02;;;;;;;9.35;0.60;;;18.20;99.90;;;;;;4951042;29;20047;-75
2022/09/14 09:59:39;;;;;;;4.88;0.60;;;18.20;99.90;;;;;;4930308;29;20079;-74
2022/09/14 10:02:28;;;;;;;10.50;0.60;;;18.20;99.90;;;;;;4964292;29;20122;-74
2022/09/14 10:05:02;;;;;;;10.40;0.50;;;18.30;99.90;;;;;;4961020;29;20059;-75
2022/09/14 10:07:30;;;;;;;6.82;0.60;;;18.20;99.90;;;;;;4962053;29;20343;-75
2022/09/14 10:10:07;;;;;;;10.32;0.70;;;18.30;99.90;;;;;;4942795;29;20066;-76
2022/09/14 10:12:35;;;;;;;10.27;0.50;;;18.40;99.90;;;;;;4965350;29;20051;-76
2022/09/14 10:15:24;;;;;;;8.35;0.57;;;18.50;99.90;;;;;;4968598;29;20054;-75
2022/09/14 10:18:12;;;;;;;9.18;0.57;;;18.40;99.90;;;;;;4949241;29;20047;-76
2022/09/14 10:21:06;;;;;;;4.30;0.60;;;18.60;99.90;;;;;;4947749;29;20047;-75
2022/09/14 10:23:37;;;;;;;8.45;0.50;;;18.50;99.90;;;;;;4957724;29;20480;-75
2022/09/14 10:26:09;;;;;;;3.88;0.40;;;18.50;99.90;;;;;;4941389;29;20388;-76
2022/09/14 10:28:36;;;;;;;12.38;0.90;;;18.80;99.90;;;;;;4943584;29;20062;-74
2022/09/14 10:31:11;;;;;;;7.93;0.50;;;18.90;99.90;;;;;;4941377;29;20098;-74
2022/09/14 10:33:38;;;;;;;7.93;0.73;;;18.90;99.90;;;;;;4958496;29;20122;-75
2022/09/14 10:36:11;;;;;;;5.38;0.55;;;18.90;99.90;;;;;;4940633;29;20058;-74
2022/09/14 10:38:42;;;;;;;7.18;0.65;;;19.20;99.90;;;;;;4940874;29;20412;-75
2022/09/14 10:41:33;;;;;;;7.10;0.50;;;19.40;99.90;;;;;;4957154;29;20043;-74
2022/09/14 10:44:24;;;;;;;6.40;0.57;;;19.60;99.90;;;;;;4940914;29;20039;-75
2022/09/14 10:47:08;;;;;;;5.18;0.60;;;19.50;99.90;;;;;;4957117;29;20508;-75
2022/09/14 10:49:55;;;;;;;9.27;0.73;;;19.70;99.90;;;;;;4957014;29;20059;-75
2022/09/14 10:52:46;;;;;;;6.50;0.70;;;19.80;99.90;;;;;;4957203;29;20171;-75
2022/09/14 10:55:12;;;;;;;5.80;0.73;;;19.70;99.90;;;;;;4917935;29;20070;-76
2022/09/14 10:57:51;;;;;;;3.37;0.57;;;19.80;99.90;;;;;;4924809;29;20043;-76
2022/09/14 11:00:21;;;;;;;5.63;0.40;;;19.70;99.90;;;;;;4940476;29;20480;-76
2022/09/14 11:03:14;;;;;;;4.45;0.52;;;19.90;99.90;;;;;;4960787;29;20190;-76
2022/09/14 11:06:02;;;;;;;7.15;0.77;;;20.00;99.90;;;;;;4958853;29;20051;-75
2022/09/14 11:08:46;;;;;;;7.30;0.65;;;19.60;99.90;;;;;;4940216;29;20043;-75
2022/09/14 11:11:42;;;;;;;8.40;0.55;;;19.50;99.90;;;;;;4926013;29;20063;-74
2022/09/14 11:14:32;;;;;;;5.65;0.50;;;20.00;99.90;;;;;;4940922;29;20078;-76
2022/09/14 11:17:17;;;;;;;6.22;0.40;;;20.20;99.90;;;;;;4942518;29;20511;-74
2022/09/14 11:20:00;;;;;;;5.03;0.40;;;20.40;99.90;;;;;;4956907;29;20555;-74
2022/09/14 11:22:55;;;;;;;7.40;0.50;;;20.40;99.90;;;;;;4958297;29;20166;-75
2022/09/14 11:25:32;;;;;;;6.75;0.55;;;20.60;99.90;;;;;;4950846;29;20485;-75
2022/09/14 11:28:02;;;;;;;7.43;0.60;;;21.00;99.90;;;;;;4958889;29;20050;-75
2022/09/14 11:30:43;;;;;;;7.82;0.60;;;21.30;99.90;;;;;;4940933;29;20078;-75
2022/09/14 11:33:32;;;;;;;4.10;0.50;;;21.10;99.90;;;;;;4940042;29;20059;-76
2022/09/14 11:36:25;;;;;;;6.00;0.50;;;21.30;99.90;;;;;;4924913;29;20062;-79
2022/09/14 11:39:22;;;;;;;4.22;0.45;;;20.80;99.90;;;;;;4964324;29;20043;-75
2022/09/14 11:42:21;;;;;;;7.07;0.45;;;20.70;99.90;;;;;;4954671;29;20062;-74
2022/09/14 11:44:53;;;;;;;6.30;0.40;;;20.50;99.90;;;;;;4949377;29;20062;-75
2022/09/14 11:47:20;;;;;;;11.35;0.50;;;20.30;99.90;;;;;;4932953;29;20134;-75
2022/09/14 11:49:54;;;;;;;;;;;20.40;99.90;;;;;;4964271;29;20073;-75
2022/09/14 11:52:22;;;;;;;3.22;0.50;;;20.50;99.90;;;;;;4945363;29;19961;-74
2022/09/14 11:54:49;;;;;;;2.05;0.43;;;20.20;99.90;;;;;;4961645;29;20137;-75
2022/09/14 11:57:17;;;;;;;;;;;20.60;99.90;;;;;;4941587;29;20210;-75
2022/09/14 11:59:43;;;;;;;6.32;0.60;;;20.80;99.90;;;;;;4939450;29;20029;-75
2022/09/14 12:02:23;;;;;;;3.90;0.50;;;21.10;99.90;;;;;;4959226;29;20086;-80
2022/09/14 12:05:04;;;;;;;3.63;0.40;;;21.30;99.90;;;;;;4960633;29;20051;-75
2022/09/14 12:07:41;;;;;;;6.55;0.60;;;21.40;99.90;;;;;;4942372;29;20051;-75
2022/09/14 12:10:16;;;;;;;4.05;0.50;;;21.70;99.90;;;;;;4957166;29;20054;-80
2022/09/14 12:12:43;;;;;;;4.70;0.40;;;21.70;99.90;;;;;;4957951;29;20078;-75
2022/09/14 12:15:20;;;;;;;4.93;0.57;;;21.00;99.90;;;;;;4955550;29;20090;-74
2022/09/14 12:17:47;;;;;;;7.78;0.52;;;20.50;99.90;;;;;;4956773;29;20051;-75
2022/09/14 12:20:40;;;;;;;5.55;0.77;;;20.00;99.90;;;;;;4956164;29;20051;-74
2022/09/14 12:23:39;;;;;;;8.05;0.70;;;20.20;99.90;;;;;;4955787;29;20357;-75
2022/09/14 12:26:05;;;;;;;7.45;0.52;;;20.30;99.90;;;;;;4950782;28;20055;-77
2022/09/14 12:28:34;;;;;;;6.23;0.50;;;20.30;99.90;;;;;;4956125;29;20051;-74
2022/09/14 12:30:59;;;;;;;5.18;0.63;;;20.50;99.90;;;;;;4956866;29;20113;-74
2022/09/14 12:33:40;;;;;;;5.63;0.50;;;20.30;99.90;;;;;;4938928;29;20142;-73
2022/09/14 12:36:09;;;;;;;5.55;0.50;;;20.20;99.90;;;;;;4956203;29;20051;-74
2022/09/14 12:38:54;;;;;;;4.82;0.40;;;20.20;99.90;;;;;;4957203;29;20043;-75
2022/09/14 12:41:19;;;;;;;5.95;0.50;;;20.40;99.90;;;;;;4956935;29;20051;-73
2022/09/14 12:43:46;;;;;;;4.23;0.50;;;20.10;99.90;;;;;;4959205;29;20058;-74
2022/09/14 12:46:21;;;;;;;4.22;0.40;;;19.90;99.90;;;;;;4941311;29;20043;-78
2022/09/14 12:48:47;;;;;;;4.05;0.43;;;19.80;99.90;;;;;;4963986;29;20182;-75
2022/09/14 12:51:31;;;;;;;4.83;0.53;;;19.90;99.90;;;;;;4956702;29;20047;-78
2022/09/14 12:54:20;;;;;;;2.63;0.40;;;20.10;99.90;;;;;;4956297;29;20062;-74
2022/09/14 12:57:00;;;;;;;5.20;0.40;;;20.10;99.90;;;;;;4956750;29;20054;-75
2022/09/14 13:00:04;;;;;;;7.50;0.60;;;20.40;99.90;;;;;;4939602;29;20051;-74
2022/09/14 13:03:18;;;;;;;3.30;0.50;;;20.20;99.90;;;;;;4940109;29;20051;-74
2022/09/14 13:05:44;;;;;;;8.07;0.60;;;20.40;99.90;;;;;;4897191;29;20060;-74
2022/09/14 13:08:11;;;;;;;5.35;0.40;;;20.40;99.90;;;;;;4881752;29;20048;-77